Terminal Aerodrome Forecast
Issued by NWS Pittsburgh, PA

Current Version | Previous Version | Graphics & Text | Print | Product List | Glossary Off
Versions: 1 2 3 4 5 6 7 8 9 10 11 12 13 14 15 16 17 18 19 20 21 22 23 24 25 26

538
FTUS41 KPBZ 101430 AAA
TAFPIT
TAF AMD
KPIT 101430Z 1015/1118 25007KT 4SM -SHSN SCT015 BKN030
     FM101800 26007KT P6SM BKN100
     FM110600 20003KT P6SM OVC025
     FM110800 18003KT 2SM -SN OVC020
     FM111500 16006KT P6SM VCSH OVC040=

USA.gov is the U.S. government's official web portal to all federal, state and local government web resources and services.